Latest Observation

42 Stations

15 Minute Data | America/Los_Angeles
as of 5/3/26 7:50 PM PDT
Station Date Time Temp (°F) RH (%) Dew Pt (°F) Wind Spd (mph) Wind Dir (°) Wind Gust (mph) Latest Rain (In) Daily Rain (In) Daily Min Temp (°F) Daily Max Temp (°F) Daily Max Wind (mph)
Elk Mt. Farm 5/3/26 1945 57.8   4.8 - - - - - - - 46.8   0.4 68.8   9.6 -
Upper Lake 5/3/26 1945 57.3   6.5 79   18 50.8   0.7 2.6 W | 275 6.5   1.6 0.00 0.00 47.2   0.2 66.4   10.1 12.1   2.7
Scotts Valley 5/3/26 1945 56.1   6.6 76   14 48.7   0.8 3.0 W | 260 8.8   6.2 0.00 0.00 44.4   0.2 68.5   8.7 13.7   0.4
Scotts Valley-South (Bella Vista) 5/3/26 1945 54.8   6.6 72   10 46.1   2.2 3.8 SW | 233 7.5   1.0 0.00 0.00 46.5   0.7 66.0   10.8 15.4   0.1
Kelseyville 5/3/26 1945 56.5   7.2 72   15 47.7   0.7 5.4 SW | 235 10.3   3.7 0.00 0.00 47.2   1.6 67.4   11.6 16.0   0.9
Kelseyville Remote 5/3/26 1945 57.1   7.1 64   13 45.0   0.4 - - - 0.00 0.00 47.5   2.2 67.8   12.0 -
Kelseyville (Clark Drive) 5/3/26 1945 56.3   6.6 - - - - - 0.00 0.00 46.9   1.1 68.0   11.5 -
Kelsey Bench (Oaklea) 5/3/26 1945 54.9   6.5 72   14 46.0   0.3 4.1 WSW | 241 9.2   3.4 0.00 0.00 47.6   2.5 65.0   12.4 16.7   2.0
Smith Lane (Kelseyville-South) 5/3/26 1945 55.5   5.8 74   7 47.2   2.9 5.7 SW | 236 9.3   1.1 0.00 0.00 47.1   1.2 65.7   12.8 17.7   1.7
Bell Hill-West 5/3/26 1945 55.6   5.9 81   10 49.9   2.3 4.8 SSW | 204 7.8   3.7 0.00 0.00 46.6   2.2 63.6   13.4 18.5   0.0
High Valley Ridgeline (Brassfield) 5/3/26 1945 52.2   8.1 79   16 45.9   1.9 8.8 WSW | 246 13.5   6.2 0.00 0.00 49.8   3.5 64.4   10.9 16.7   1.5
Wight Way (Adobe Creek) 5/3/26 1900 56.3   6.8 72   13 47.4   0.9 1.8 SW | 228 8.7   0.8 0.00 0.00 45.3   1.4 66.5   12.4 14.2   2.3
Ridgeline Top (Brassfield) 5/3/26 1945 52.0   7.7 - - - - - - - 50.0   3.8 65.1   8.6 -
Ridgeline Low (Brassfield) 5/3/26 1945 54.0   7.4 - - - - - - - 50.7   2.7 65.0   11.3 -
Long Valley (Shannon) 5/3/26 1945 58.5   4.4 74   7 50.1   1.5 3.5 NNW | 329 7.5   6.9 0.00 0.00 47.6   1.5 71.4   8.1 12.1   2.7
High Valley Winery 5/3/26 1945 54.7   7.2 73   13 46.1   1.5 5.8 W | 261 11.0   4.8 0.00 0.00 45.4   1.6 69.4   7.0 14.0   1.0
Round Mtn Rd. 5/3/26 1900 57.1   9.5 - - - - - - - 48.3   1.7 67.8   8.1 -
Circle O 5/3/26 1945 54.4   8.4 - - - - - - - 46.9   1.6 67.9   8.8 -
Robertsbridge Vineyards 5/3/26 1945 55.0   6.0 73   14 46.7   0.3 - - - - - 45.4   2.6 68.8   10.6 -
Urgency Vineyard 5/3/26 1945 53.9   7.6 72   13 45.2   2.0 4.3 SW | 227 8.8   5.0 0.00 0.00 45.1   0.6 68.2   7.3 12.9   0.7
Red Hills (Beckstoffer) 5/3/26 1945 53.8   7.1 74   13 45.7   1.5 - - - 0.00 0.00 42.4   0.2 70.0   5.2 -
Winters (Shannon) 5/3/26 1945 53.1   7.5 73   18 44.7   0.1 2.7 W | 281 6.2   0.8 0.00 0.00 43.0   0.3 66.1   5.3 14.8   3.4
Secret Pond (Shannon) 5/3/26 1945 52.4   7.1 74   15 44.4   0.9 3.5 W | 264 7.8   4.3 0.00 0.00 45.0   0.1 66.4   7.0 11.2   2.5
Rolling Knolls (Shannon) 5/3/26 1945 55.9   6.3 71   14 46.6   0.4 0.3 NNE | 24 2.4   3.1 0.00 0.00 45.1   1.0 67.9   7.2 12.6   1.4
Lower Lake 5/3/26 1945 55.9   6.9 74   16 47.6   0.2 0.9 SE | 129 2.3   3.4 0.00 0.00 48.9   2.4 68.0   6.1 15.6   3.8
Adamson Ranch 5/3/26 1945 56.7   4.5 75   5 49.0   2.6 0.6 ESE | 117 2.8   0.0 0.00 0.00 46.6   0.7 69.1   6.0 13.6   1.8
Middletown (Diamond D) 5/3/26 1945 56.2   3.4 70   2 46.4   3.9 5.1 NE | 49 15.6   9.0 0.00 0.00 47.4   0.6 65.4   10.1 20.8   7.7
Middletown-West (Domaine Helena) 5/3/26 1945 54.5   2.1 73   4 46.1   3.4 11.2 SW | 214 16.8   8.0 0.00 0.00 43.6   0.7 64.3   10.7 24.2   0.5
Middletown-South 5/3/26 1945 55.2   2.8 69   3 45.2   3.8 6.0 WSW | 248 15.9   10.4 0.00 0.00 46.3   1.1 65.2   10.3 20.6   9.2
Jim Davis (Langtry) 5/3/26 1945 56.6   4.8 72   5 47.9   2.6 5.1 WSW | 245 10.4   4.3 0.00 0.00 48.3   1.4 66.8   6.1 14.3   1.8
Napa Valley Basin 5/3/26 1945 57.9   3.8 73   2 49.2   3.0 1.6 SSW | 203 4.5   3.6 0.00 0.00 47.2   1.1 67.8   6.3 16.2   0.4
Lower Bohn 5/3/26 1945 55.2   5.5 76   6 47.7   2.9 2.8 SE | 126 7.3   4.7 0.00 0.00 43.9   0.8 67.5   6.1 14.2   2.4
Upper Bohn-North 5/3/26 1945 57.0   3.3 68   2 46.7   3.9 2.5 SW | 233 5.3   0.7 0.00 0.00 49.0   0.8 68.4   5.6 14.0   0.4
Snell Peak Blk#9 5/3/26 1945 56.5   3.5 69   0 46.5   3.4 3.6 SSW | 201 5.6   1.5 0.00 0.00 48.8   1.5 65.8   6.5 13.4   1.6
Coyote Lake West 5/3/26 1945 58.1   3.5 69   1 48.1   3.6 4.1 SW | 214 7.5   0.2 0.00 0.00 49.9   0.3 66.0   6.3 15.4   2.1
Coyote Lake Northeast 5/3/26 1945 57.8   3.5 71   1 48.3   3.6 - - - - - 49.7   0.7 68.0   6.0 -
Coyote Lake East 5/3/26 1945 59.3   4.0 69   0 49.1   3.9 - - - - - 49.4   1.1 67.5   6.2 -
Morgan Valley 5/3/26 1945 52.2   7.0 82   7 47.0   4.5 4.5 SSW | 203 7.8   4.6 0.00 0.00 47.3   6.2 60.9   10.4 12.7   2.2
Mine Pit North 5/3/26 1945 53.6   7.0 76   7 46.4   4.2 6.3 SSW | 211 11.6   1.5 - - 47.7   4.5 64.2   10.2 21.2   3.0
Mine Pit South 5/3/26 1945 53.0   6.0 74   3 44.8   4.5 7.1 WSW | 253 11.2   0.4 0.00 0.00 47.2   3.6 65.9   8.9 16.0   0.8
Cow Mountain 5/3/26 1945 45.6   7.1 - - 9.9 W | 267 13.2   1.5 0.00 0.00 45.3   6.8 60.0   8.5 22.4   5.9
Ukiah-SE (Ruddick) 5/3/26 1945 57.5   4.8 71   3 48.1   3.3 3.8 NNW | 348 6.4   3.8 0.00 0.00 53.3   3.0 65.5   6.2 17.0   5.3
Max     59.3 82 50.8 11.2 - 16.8 0.00 0.00 53.3 71.4 24.2
Avg     55.3 73 47.1 4.4 - 8.7 0.00 - - - -
Min     45.6 64 44.4 0.3 - 2.3 0.00 0.00 42.4 60.0 11.2